createdAt,value
2022-10-28T00:00:17.719Z,23.80
2022-10-28T00:04:01.679Z,24.80
2022-10-28T00:07:37.158Z,26.90
2022-10-28T00:11:20.486Z,26.30
2022-10-28T00:14:52.639Z,24.80
2022-10-28T00:18:51.889Z,25.10
2022-10-28T00:22:12.878Z,22.60
2022-10-28T00:26:15.321Z,24.30
2022-10-28T00:29:36.093Z,22.60
2022-10-28T00:33:33.055Z,23.60
2022-10-28T00:36:54.140Z,25.10
2022-10-28T00:40:35.896Z,23.60
2022-10-28T00:44:47.824Z,25.50
2022-10-28T00:48:09.442Z,23.70
2022-10-28T00:51:50.806Z,24.00
2022-10-28T00:55:25.762Z,23.00
2022-10-28T00:59:06.722Z,24.80
2022-10-28T01:02:50.174Z,24.70
2022-10-28T01:06:17.699Z,23.40
2022-10-28T01:09:55.238Z,24.40
2022-10-28T01:13:57.828Z,24.30
2022-10-28T01:17:37.065Z,23.10
2022-10-28T01:21:14.033Z,24.60
2022-10-28T01:24:45.140Z,26.00
2022-10-28T01:28:36.231Z,25.80
2022-10-28T01:32:30.351Z,30.90
2022-10-28T01:35:57.648Z,44.20
2022-10-28T01:39:42.133Z,28.30
2022-10-28T01:43:16.253Z,29.20
2022-10-28T01:46:59.457Z,25.00
2022-10-28T01:50:38.291Z,29.40
2022-10-28T01:54:23.226Z,25.30
2022-10-28T01:57:46.736Z,28.50
2022-10-28T02:01:23.923Z,26.70
2022-10-28T02:05:37.696Z,26.80
2022-10-28T02:09:26.839Z,25.70
2022-10-28T02:12:55.313Z,27.70
2022-10-28T02:16:35.318Z,27.20
2022-10-28T02:20:32.276Z,30.00
2022-10-28T02:24:10.252Z,29.70
2022-10-28T02:28:07.178Z,28.30
2022-10-28T02:31:52.288Z,23.70
2022-10-28T02:35:19.193Z,25.00
2022-10-28T02:38:57.019Z,26.40
2022-10-28T02:42:34.772Z,22.40
2022-10-28T02:46:09.573Z,24.90
2022-10-28T02:50:09.397Z,25.40
2022-10-28T02:53:36.894Z,24.20
2022-10-28T02:57:32.067Z,25.10
2022-10-28T03:00:52.626Z,26.90
2022-10-28T03:04:30.219Z,29.40
2022-10-28T03:08:26.656Z,25.40
2022-10-28T03:11:47.190Z,26.10
2022-10-28T03:15:24.879Z,24.20
2022-10-28T03:19:02.981Z,25.10
2022-10-28T03:22:43.847Z,46.80
2022-10-28T03:26:17.868Z,29.60
2022-10-28T03:29:55.651Z,24.70
2022-10-28T03:33:33.403Z,27.30
2022-10-28T03:37:11.079Z,24.60
2022-10-28T03:41:07.643Z,27.10
2022-10-28T03:44:28.329Z,27.40
2022-10-28T03:48:24.742Z,26.30
2022-10-28T03:51:45.555Z,25.10
2022-10-28T03:55:23.981Z,25.50
2022-10-28T03:59:20.451Z,28.90
2022-10-28T04:02:59.727Z,26.40
2022-10-28T04:06:20.340Z,37.00
2022-10-28T04:09:58.121Z,31.70
2022-10-28T04:13:35.714Z,26.60
2022-10-28T04:17:13.750Z,25.80
2022-10-28T04:20:51.226Z,31.30
2022-10-28T04:24:28.941Z,21.70
2022-10-28T04:28:25.552Z,22.80
2022-10-28T04:31:48.721Z,21.40
2022-10-28T04:35:43.975Z,19.20
2022-10-28T04:39:04.913Z,19.30
2022-10-28T04:42:42.576Z,19.50
2022-10-28T04:46:20.239Z,22.10
2022-10-28T04:50:16.893Z,22.00
2022-10-28T04:53:38.203Z,25.20
2022-10-28T04:57:34.386Z,23.20
2022-10-28T05:00:55.355Z,22.40
2022-10-28T05:04:32.783Z,25.10
2022-10-28T05:08:10.704Z,21.40
2022-10-28T05:11:48.070Z,24.50
2022-10-28T05:15:26.657Z,21.70
2022-10-28T05:19:22.256Z,24.00
2022-10-28T05:22:53.768Z,20.70
2022-10-28T05:26:20.636Z,19.70
2022-10-28T05:29:58.550Z,20.80
2022-10-28T05:33:36.167Z,21.40
2022-10-28T05:37:13.923Z,20.90
2022-10-28T05:40:51.404Z,19.00
2022-10-28T05:44:48.006Z,20.70
2022-10-28T05:48:08.753Z,23.20
2022-10-28T05:52:05.305Z,24.00
2022-10-28T05:55:28.436Z,23.20
2022-10-28T05:59:04.402Z,22.70
2022-10-28T06:02:42.137Z,20.00
2022-10-28T06:06:19.035Z,20.30
2022-10-28T06:10:16.131Z,21.50
2022-10-28T06:13:36.147Z,21.80
2022-10-28T06:17:13.702Z,22.00
2022-10-28T06:21:10.212Z,20.60
2022-10-28T06:24:30.846Z,19.80
2022-10-28T06:28:10.388Z,20.40
2022-10-28T06:32:08.611Z,20.60
2022-10-28T06:35:29.139Z,19.00
2022-10-28T06:39:07.111Z,17.60
2022-10-28T06:43:05.403Z,19.80
2022-10-28T06:46:46.147Z,19.30
2022-10-28T06:50:07.041Z,19.00
2022-10-28T06:54:03.150Z,18.00
2022-10-28T06:57:42.848Z,17.40
2022-10-28T07:01:07.258Z,17.50
2022-10-28T07:04:44.674Z,17.30
2022-10-28T07:08:22.390Z,17.00
2022-10-28T07:12:04.760Z,17.30
2022-10-28T07:15:37.806Z,17.50
2022-10-28T07:19:34.169Z,17.60
2022-10-28T07:22:59.915Z,17.10
2022-10-28T07:26:32.169Z,18.80
2022-10-28T07:30:10.905Z,15.80
2022-10-28T07:34:06.462Z,15.90
2022-10-28T07:37:45.829Z,11.20
2022-10-28T07:41:09.070Z,15.20
2022-10-28T07:45:04.174Z,15.20
2022-10-28T07:48:25.213Z,14.20
2022-10-28T07:52:02.757Z,16.30
2022-10-28T07:56:02.242Z,15.20
2022-10-28T07:59:26.797Z,13.60
2022-10-28T08:03:02.798Z,13.00
2022-10-28T08:06:38.419Z,13.20
2022-10-28T08:10:16.268Z,12.40
2022-10-28T08:13:55.325Z,15.30
2022-10-28T08:17:51.937Z,11.80
2022-10-28T08:21:14.036Z,11.20
2022-10-28T08:24:50.525Z,12.10
2022-10-28T08:28:28.867Z,10.80
2022-10-28T08:32:09.479Z,10.30
2022-10-28T08:35:43.708Z,10.00
2022-10-28T08:39:21.416Z,9.30
2022-10-28T08:43:08.592Z,11.30
2022-10-28T08:47:23.801Z,11.80
2022-10-28T08:51:13.714Z,9.00
2022-10-28T08:54:47.495Z,8.40
2022-10-28T08:58:28.593Z,8.60
2022-10-28T09:02:24.458Z,8.30
2022-10-28T09:06:06.834Z,9.90
2022-10-28T09:09:27.540Z,8.80
2022-10-28T09:13:18.435Z,9.00
2022-10-28T09:16:48.774Z,7.50
2022-10-28T09:20:31.855Z,9.30
2022-10-28T09:24:04.055Z,8.40
2022-10-28T09:27:58.480Z,7.80
2022-10-28T09:52:07.018Z,8.20
2022-10-28T09:55:29.107Z,8.10
2022-10-28T09:59:24.188Z,4.70
2022-10-28T10:02:45.604Z,4.10
2022-10-28T10:06:32.253Z,5.60
2022-10-28T10:10:06.052Z,4.40
2022-10-28T10:13:41.510Z,3.90
2022-10-28T10:17:20.219Z,4.00
2022-10-28T10:20:58.502Z,4.30
2022-10-28T10:24:50.321Z,4.50
2022-10-28T10:28:16.046Z,4.40
2022-10-28T10:32:03.255Z,4.60
2022-10-28T10:35:35.397Z,3.70
2022-10-28T10:39:04.111Z,3.50
2022-10-28T10:43:18.564Z,3.30
2022-10-28T10:46:41.138Z,4.60
2022-10-28T10:54:18.573Z,5.80
2022-10-28T10:57:41.367Z,3.90
2022-10-28T11:01:39.502Z,4.10
2022-10-28T11:05:04.792Z,4.40
2022-10-28T11:08:41.400Z,4.30
2022-10-28T11:12:36.700Z,4.80
2022-10-28T11:16:17.682Z,4.80
2022-10-28T11:19:39.841Z,4.60
2022-10-28T11:24:05.557Z,4.20
2022-10-28T11:28:05.336Z,5.10
2022-10-28T11:31:33.389Z,4.70
2022-10-28T11:35:29.688Z,5.40
2022-10-28T11:39:10.729Z,4.70
2022-10-28T11:42:45.460Z,6.80
2022-10-28T11:46:19.154Z,4.40
2022-10-28T11:50:34.532Z,8.00
2022-10-28T11:54:42.527Z,6.80
2022-10-28T11:58:59.605Z,5.00
2022-10-28T12:03:01.630Z,5.00
2022-10-28T12:06:28.929Z,5.50
2022-10-28T12:10:20.110Z,7.20
2022-10-28T12:14:10.177Z,9.10
2022-10-28T12:17:45.893Z,7.30
2022-10-28T12:21:18.829Z,7.40
2022-10-28T12:24:47.178Z,9.70
2022-10-28T12:28:47.985Z,6.10
2022-10-28T12:32:12.824Z,7.80
2022-10-28T12:36:19.275Z,5.10
2022-10-28T12:40:22.384Z,7.50
2022-10-28T12:43:49.695Z,6.40
2022-10-28T12:47:24.635Z,5.90
2022-10-28T12:51:28.429Z,8.50
2022-10-28T13:02:39.872Z,4.80
2022-10-28T13:06:16.393Z,5.20
2022-10-28T13:10:40.625Z,4.90
2022-10-28T13:14:34.211Z,5.10
2022-10-28T13:18:06.439Z,3.80
2022-10-28T13:21:50.833Z,4.80
2022-10-28T13:25:24.668Z,6.30
2022-10-28T13:28:53.823Z,5.60
2022-10-28T13:32:37.364Z,4.30
2022-10-28T13:36:17.051Z,4.00
2022-10-28T13:39:44.867Z,6.20
2022-10-28T13:43:41.796Z,6.50
2022-10-28T13:47:23.797Z,5.30
2022-10-28T13:51:10.341Z,5.60
2022-10-28T13:54:49.454Z,4.80
2022-10-28T13:58:22.976Z,14.10
2022-10-28T14:01:56.726Z,15.90
2022-10-28T14:05:38.914Z,9.20
2022-10-28T14:09:18.377Z,6.10
2022-10-28T14:12:50.166Z,20.40
2022-10-28T14:16:38.627Z,10.50
2022-10-28T14:20:01.460Z,14.30
2022-10-28T14:24:07.247Z,12.60
2022-10-28T14:27:44.170Z,16.00
2022-10-28T14:31:40.477Z,15.20
2022-10-28T14:35:17.928Z,7.90
2022-10-28T14:39:20.430Z,6.00
2022-10-28T14:42:58.413Z,8.50
2022-10-28T14:46:46.861Z,8.60
2022-10-28T14:50:22.687Z,7.30
2022-10-28T14:53:47.140Z,6.30
2022-10-28T14:57:43.974Z,6.70
2022-10-28T15:01:16.113Z,7.00
2022-10-28T15:04:47.129Z,5.20
2022-10-28T15:08:41.101Z,5.60
2022-10-28T15:12:25.455Z,4.30
2022-10-28T15:16:05.599Z,14.50
2022-10-28T15:19:29.150Z,18.70
2022-10-28T15:23:23.244Z,23.00
2022-10-28T15:27:02.786Z,15.70
2022-10-28T15:30:25.683Z,10.00
2022-10-28T15:34:20.417Z,16.40
2022-10-28T15:37:40.990Z,19.70
2022-10-28T15:41:21.674Z,19.00
2022-10-28T15:44:57.011Z,22.90
2022-10-28T15:48:33.969Z,21.40
2022-10-28T15:52:17.892Z,16.20
2022-10-28T15:56:18.025Z,16.80
2022-10-28T15:59:38.747Z,19.60
2022-10-28T16:03:45.702Z,20.70
2022-10-28T16:07:10.167Z,12.20
2022-10-28T16:10:48.143Z,12.30
2022-10-28T16:14:31.619Z,12.10
2022-10-28T16:17:59.869Z,13.10
2022-10-28T16:21:38.128Z,21.50
2022-10-28T16:25:33.500Z,14.50
2022-10-28T16:28:54.231Z,18.90
2022-10-28T16:32:36.633Z,40.80
2022-10-28T16:36:09.647Z,32.50
2022-10-28T16:39:47.083Z,16.80
2022-10-28T16:43:25.862Z,16.60
2022-10-28T16:47:25.912Z,14.60
2022-10-28T16:51:17.051Z,17.20
2022-10-28T16:54:37.999Z,15.00
2022-10-28T16:58:34.746Z,15.60
2022-10-28T17:01:58.973Z,15.60
2022-10-28T17:05:52.074Z,17.60
2022-10-28T17:09:12.656Z,15.80
2022-10-28T17:13:14.085Z,20.90
2022-10-28T17:16:36.005Z,17.20
2022-10-28T17:20:12.401Z,14.20
2022-10-28T17:23:50.596Z,11.80
2022-10-28T17:27:27.768Z,11.00
2022-10-28T17:31:08.226Z,13.90
2022-10-28T17:35:02.053Z,54.50
2022-10-28T17:38:22.817Z,28.30
2022-10-28T17:42:03.943Z,19.60
2022-10-28T17:45:38.200Z,20.00
2022-10-28T17:49:35.759Z,11.20
2022-10-28T17:52:56.972Z,15.20
2022-10-28T17:56:34.908Z,10.80
2022-10-28T18:00:13.958Z,12.70
2022-10-28T18:03:50.484Z,15.20
2022-10-28T18:07:45.836Z,13.70
2022-10-28T18:11:26.690Z,17.90
2022-10-28T18:14:47.434Z,15.20
2022-10-28T18:18:43.905Z,11.80
2022-10-28T18:22:05.131Z,28.70
2022-10-28T18:25:42.677Z,14.50
2022-10-28T18:29:20.634Z,14.00
2022-10-28T18:32:58.159Z,16.60
2022-10-28T18:36:36.087Z,13.00
2022-10-28T18:40:14.073Z,13.60
2022-10-28T18:43:56.271Z,13.30
2022-10-28T18:47:28.906Z,15.30
2022-10-28T18:51:09.889Z,14.60
2022-10-28T18:55:04.272Z,15.20
2022-10-28T18:58:28.665Z,15.20
2022-10-28T19:02:21.978Z,15.30
2022-10-28T19:06:05.371Z,14.10
2022-10-28T19:09:26.106Z,16.20
2022-10-28T19:13:04.015Z,15.00
2022-10-28T19:16:41.511Z,17.20
2022-10-28T19:20:19.444Z,14.20
2022-10-28T19:23:57.361Z,14.90
2022-10-28T19:27:34.713Z,13.30
2022-10-28T19:31:18.568Z,12.30
2022-10-28T19:34:50.987Z,13.10
2022-10-28T19:38:31.027Z,12.80
2022-10-28T19:42:25.159Z,12.60
2022-10-28T19:46:06.791Z,21.80
2022-10-28T19:49:32.436Z,13.30
2022-10-28T19:53:05.649Z,13.10
2022-10-28T19:57:01.955Z,14.50
2022-10-28T20:00:22.375Z,15.70
2022-10-28T20:04:00.149Z,14.60
2022-10-28T20:07:57.006Z,17.40
2022-10-28T20:11:38.789Z,15.00
2022-10-28T20:14:59.967Z,14.70
2022-10-28T20:18:38.362Z,13.90
2022-10-28T20:22:16.786Z,13.40
2022-10-28T20:25:53.139Z,14.20
2022-10-28T20:29:30.302Z,13.10
2022-10-28T20:33:08.315Z,13.30
2022-10-28T20:36:45.804Z,13.80
2022-10-28T20:40:23.496Z,13.50
2022-10-28T20:44:02.616Z,15.00
2022-10-28T20:47:39.316Z,13.90
2022-10-28T20:51:16.719Z,13.40
2022-10-28T20:54:54.141Z,14.40
2022-10-28T20:58:34.011Z,14.00
2022-10-28T21:02:09.830Z,12.80
2022-10-28T21:06:06.296Z,12.00
2022-10-28T21:09:27.253Z,12.50
2022-10-28T21:13:05.140Z,13.60
2022-10-28T21:17:01.142Z,16.10
2022-10-28T21:20:22.512Z,17.30
2022-10-28T21:23:59.791Z,20.10
2022-10-28T21:27:56.991Z,34.20
2022-10-28T21:31:20.792Z,21.00
2022-10-28T21:34:55.460Z,24.40
2022-10-28T21:38:54.939Z,18.90
2022-10-28T21:42:37.240Z,16.60
2022-10-28T21:45:58.871Z,16.10
2022-10-28T21:49:35.775Z,15.40
2022-10-28T21:53:13.564Z,16.10
2022-10-28T21:56:51.108Z,19.40
2022-10-28T22:00:28.727Z,17.40
2022-10-28T22:04:06.385Z,20.60
2022-10-28T22:07:44.292Z,15.40
2022-10-28T22:11:23.348Z,15.60
2022-10-28T22:14:59.490Z,15.30
2022-10-28T22:18:58.346Z,15.00
2022-10-28T22:22:19.129Z,15.60
2022-10-28T22:26:01.068Z,14.50
2022-10-28T22:29:34.428Z,12.60
2022-10-28T22:33:12.277Z,14.10
2022-10-28T22:36:49.798Z,14.90
2022-10-28T22:40:46.287Z,13.60
2022-10-28T22:44:07.674Z,13.30
2022-10-28T22:47:44.217Z,14.10
2022-10-28T22:51:40.873Z,15.10
2022-10-28T22:55:20.191Z,15.10
2022-10-28T22:58:42.659Z,14.30
2022-10-28T23:02:18.608Z,15.00
2022-10-28T23:05:56.169Z,13.50
2022-10-28T23:09:52.559Z,14.60
2022-10-28T23:13:13.792Z,12.30
2022-10-28T23:16:50.670Z,12.30
2022-10-28T23:20:28.523Z,9.60
2022-10-28T23:24:24.880Z,16.20
2022-10-28T23:28:05.094Z,11.30
2022-10-28T23:31:26.600Z,12.30
2022-10-28T23:35:04.801Z,11.90
2022-10-28T23:38:41.465Z,19.50
2022-10-28T23:42:23.994Z,10.70
2022-10-28T23:45:57.264Z,15.60
2022-10-28T23:49:34.383Z,15.80
2022-10-28T23:53:11.828Z,13.10
2022-10-28T23:56:49.724Z,12.20
